Time;durP1;ratioP1;P1;durP2;ratioP2;P2;SDS_P1;SDS_P2;PMS_P1;PMS_P2;Temp;Humidity;BMP_temperature;BMP_pressure;BME280_temperature;BME280_humidity;BME280_pressure;Samples;Min_cycle;Max_cycle;Signal;HPM_P1;HPM_P2
2022/03/07 00:00:05;;;;;;;2.33;2.27;;;16.90;59.50;;;;;;5031884;28;43859;-73
2022/03/07 00:02:34;;;;;;;2.33;2.33;;;16.90;59.60;;;;;;5048394;28;43985;-73
2022/03/07 00:05:02;;;;;;;2.20;2.10;;;16.90;59.60;;;;;;5015455;28;43971;-75
2022/03/07 00:07:31;;;;;;;2.00;2.00;;;16.90;59.70;;;;;;5030984;28;44085;-75
2022/03/07 00:10:01;;;;;;;2.40;2.40;;;16.90;60.00;;;;;;5065666;28;44077;-74
2022/03/07 00:12:30;;;;;;;2.80;2.60;;;16.90;60.00;;;;;;5047436;28;43945;-74
2022/03/07 00:15:00;;;;;;;2.20;2.20;;;17.10;59.70;;;;;;5032146;28;44268;-74
2022/03/07 00:17:29;;;;;;;2.30;2.30;;;17.30;59.30;;;;;;5030169;28;45504;-74
2022/03/07 00:19:58;;;;;;;2.10;2.10;;;17.40;59.00;;;;;;5031051;28;44003;-74
2022/03/07 00:22:26;;;;;;;2.70;2.60;;;17.50;58.80;;;;;;5014708;28;43366;-74
2022/03/07 00:24:55;;;;;;;2.60;2.60;;;17.40;58.60;;;;;;5031805;28;43451;-74
2022/03/07 00:27:25;;;;;;;2.37;2.37;;;17.40;58.60;;;;;;5065712;28;43755;-73
2022/03/07 00:29:53;;;;;;;2.10;2.10;;;17.30;58.60;;;;;;5014876;28;44744;-74
2022/03/07 00:32:22;;;;;;;2.13;2.13;;;17.20;58.70;;;;;;5031312;28;43826;-73
2022/03/07 00:34:51;;;;;;;2.10;2.10;;;17.10;58.90;;;;;;5066410;28;44064;-75
2022/03/07 00:37:19;;;;;;;2.00;2.00;;;17.10;59.10;;;;;;5046653;28;45028;-73
2022/03/07 00:39:47;;;;;;;2.20;2.20;;;17.00;59.20;;;;;;5015888;28;44365;-75
2022/03/07 00:42:16;;;;;;;2.17;2.17;;;17.00;59.40;;;;;;5051031;28;43919;-74
2022/03/07 00:44:46;;;;;;;2.40;2.20;;;16.90;59.40;;;;;;5034767;28;43913;-72
2022/03/07 00:47:14;;;;;;;2.17;2.17;;;16.90;59.70;;;;;;5067563;28;44120;-72
2022/03/07 00:49:45;;;;;;;2.40;2.40;;;16.90;60.00;;;;;;5051556;28;43964;-74
2022/03/07 00:52:13;;;;;;;2.37;2.37;;;17.10;59.90;;;;;;5051144;28;44028;-72
2022/03/07 00:54:42;;;;;;;2.00;2.00;;;17.20;59.50;;;;;;5067780;28;43898;-74
2022/03/07 00:57:13;;;;;;;2.37;2.37;;;17.20;59.10;;;;;;5050552;28;44762;-74
2022/03/07 00:59:41;;;;;;;2.10;2.10;;;17.20;59.00;;;;;;5050473;28;44767;-73
2022/03/07 01:02:12;;;;;;;2.20;2.20;;;17.10;59.00;;;;;;5017674;28;43544;-74
2022/03/07 01:04:41;;;;;;;2.23;2.23;;;17.00;59.10;;;;;;5067680;28;44178;-74
2022/03/07 01:07:10;;;;;;;2.10;2.10;;;17.00;59.20;;;;;;5050590;28;45188;-74
2022/03/07 01:09:38;;;;;;;2.10;2.10;;;16.90;59.40;;;;;;5050530;28;44019;-74
2022/03/07 01:12:08;;;;;;;2.10;2.10;;;16.90;59.50;;;;;;5018145;28;43843;-73
2022/03/07 01:14:36;;;;;;;1.87;1.87;;;16.90;59.60;;;;;;5034232;28;44048;-73
2022/03/07 01:17:05;;;;;;;2.17;2.17;;;16.90;59.60;;;;;;5050775;28;45729;-73
2022/03/07 01:19:35;;;;;;;2.10;2.10;;;16.80;59.60;;;;;;5066504;28;44496;-73
2022/03/07 01:22:05;;;;;;;2.10;2.10;;;16.80;59.70;;;;;;5068423;28;44050;-73
2022/03/07 01:24:36;;;;;;;2.20;2.20;;;16.80;59.70;;;;;;5067675;28;43985;-73
2022/03/07 01:27:05;;;;;;;2.50;2.40;;;16.80;60.10;;;;;;5050416;28;44933;-73
2022/03/07 01:29:33;;;;;;;2.20;2.20;;;16.90;59.90;;;;;;5050084;28;44282;-74
2022/03/07 01:32:04;;;;;;;2.10;2.00;;;17.10;59.60;;;;;;5034015;28;44012;-74
2022/03/07 01:34:34;;;;;;;2.00;2.00;;;17.30;59.20;;;;;;5068000;28;43947;-74
2022/03/07 01:37:03;;;;;;;2.10;2.10;;;17.40;58.90;;;;;;5050119;28;45692;-73
2022/03/07 01:39:31;;;;;;;2.20;2.20;;;17.40;58.60;;;;;;5046036;28;44000;-74
2022/03/07 01:41:59;;;;;;;1.67;1.67;;;17.30;58.50;;;;;;5046538;28;43862;-73
2022/03/07 01:44:28;;;;;;;2.20;2.20;;;17.30;58.70;;;;;;5050020;28;43991;-76
2022/03/07 01:46:57;;;;;;;2.10;2.10;;;17.20;58.80;;;;;;5050192;28;44725;-73
2022/03/07 01:49:28;;;;;;;1.90;1.90;;;17.10;58.90;;;;;;5033680;28;44576;-74
2022/03/07 01:51:58;;;;;;;2.10;2.10;;;17.00;59.10;;;;;;5066789;28;44038;-74
2022/03/07 01:54:31;;;;;;;1.97;1.97;;;17.00;59.20;;;;;;5049839;28;43959;-73
2022/03/07 01:57:00;;;;;;;2.00;2.00;;;17.00;59.40;;;;;;5049928;28;44214;-73
2022/03/07 01:59:33;;;;;;;2.00;2.00;;;16.90;59.40;;;;;;5032926;28;44106;-73
2022/03/07 02:02:01;;;;;;;1.90;1.90;;;16.90;59.50;;;;;;5033432;28;43934;-73
2022/03/07 02:04:32;;;;;;;1.97;1.90;;;16.90;59.90;;;;;;5050036;28;43942;-73
2022/03/07 02:07:03;;;;;;;2.10;2.00;;;16.90;59.90;;;;;;5017294;28;45369;-74
2022/03/07 02:09:34;;;;;;;2.10;2.10;;;17.10;59.50;;;;;;5017161;28;43926;-74
2022/03/07 02:12:04;;;;;;;2.27;2.17;;;17.10;59.10;;;;;;5049620;28;43861;-74
2022/03/07 02:14:36;;;;;;;1.90;1.90;;;17.10;58.90;;;;;;5049808;28;44244;-74
2022/03/07 02:17:05;;;;;;;1.90;1.90;;;17.10;59.00;;;;;;5069455;27;43891;-73
2022/03/07 02:19:37;;;;;;;2.00;2.00;;;17.00;59.00;;;;;;5073655;27;44902;-73
2022/03/07 02:22:07;;;;;;;2.00;2.00;;;17.00;59.20;;;;;;5073409;27;44085;-73
2022/03/07 02:24:41;;;;;;;1.90;1.90;;;16.90;59.30;;;;;;5107641;27;44016;-74
2022/03/07 02:27:15;;;;;;;1.90;1.90;;;16.90;59.50;;;;;;5072931;27;45617;-73
2022/03/07 02:29:44;;;;;;;2.00;2.00;;;16.80;59.50;;;;;;5090207;27;44016;-74
2022/03/07 02:32:20;;;;;;;1.93;1.93;;;16.80;59.60;;;;;;5090792;27;43432;-73
2022/03/07 02:34:49;;;;;;;1.90;1.90;;;16.80;59.60;;;;;;5075626;27;43965;-73
2022/03/07 02:37:20;;;;;;;1.93;1.93;;;16.80;59.70;;;;;;5072993;27;44833;-73
2022/03/07 02:39:53;;;;;;;2.10;2.10;;;16.80;59.70;;;;;;5073877;27;44048;-73
2022/03/07 02:42:43;;;;;;;2.10;2.10;;;16.80;60.00;;;;;;5079535;27;44039;-74
2022/03/07 02:45:12;;;;;;;2.10;2.10;;;16.90;59.90;;;;;;5089899;27;44128;-73
2022/03/07 02:47:40;;;;;;;1.80;1.80;;;17.00;59.60;;;;;;5056254;27;45273;-73
2022/03/07 02:50:09;;;;;;;2.00;2.00;;;17.20;59.20;;;;;;5072223;27;43928;-73
2022/03/07 02:52:39;;;;;;;1.70;1.70;;;17.30;58.90;;;;;;5072877;27;43579;-73
2022/03/07 02:55:09;;;;;;;1.97;1.97;;;17.40;58.60;;;;;;5108034;27;43995;-73
2022/03/07 02:57:37;;;;;;;1.90;1.90;;;17.40;58.40;;;;;;5056579;27;43948;-74
2022/03/07 03:00:09;;;;;;;1.80;1.80;;;17.30;58.30;;;;;;5072586;27;43457;-73
2022/03/07 03:02:38;;;;;;;1.80;1.80;;;17.20;58.50;;;;;;5072795;27;43981;-74
2022/03/07 03:05:09;;;;;;;1.90;1.90;;;17.10;58.70;;;;;;5056538;27;43986;-73
2022/03/07 03:07:39;;;;;;;1.90;1.90;;;17.00;58.90;;;;;;5107367;27;43919;-73
2022/03/07 03:10:09;;;;;;;1.90;1.90;;;17.00;59.00;;;;;;5072315;27;43913;-75
2022/03/07 03:12:37;;;;;;;1.50;1.50;;;17.00;59.20;;;;;;5072427;27;44075;-72
2022/03/07 03:15:08;;;;;;;1.80;1.80;;;16.90;59.30;;;;;;5072929;27;43609;-74
2022/03/07 03:17:38;;;;;;;1.97;1.87;;;16.80;59.30;;;;;;5089336;27;44083;-73
2022/03/07 03:20:10;;;;;;;1.90;1.90;;;16.80;59.50;;;;;;5105968;27;43975;-73
2022/03/07 03:22:39;;;;;;;1.70;1.70;;;16.90;59.80;;;;;;5073123;27;44101;-73
2022/03/07 03:25:10;;;;;;;1.90;1.90;;;17.00;59.60;;;;;;5072654;27;44084;-72
2022/03/07 03:27:38;;;;;;;1.90;1.90;;;17.10;59.20;;;;;;5072296;27;44098;-74
2022/03/07 03:30:09;;;;;;;1.77;1.77;;;17.10;58.90;;;;;;5072015;27;44661;-73
2022/03/07 03:32:37;;;;;;;1.67;1.67;;;17.10;58.80;;;;;;5088493;27;43948;-73
2022/03/07 03:35:08;;;;;;;1.80;1.80;;;17.00;58.80;;;;;;5056155;27;44067;-72
2022/03/07 03:37:38;;;;;;;1.67;1.67;;;16.90;59.00;;;;;;5105602;27;44029;-75
2022/03/07 03:40:09;;;;;;;1.73;1.73;;;16.90;59.10;;;;;;5055524;27;43919;-74
2022/03/07 03:42:37;;;;;;;1.50;1.50;;;16.80;59.20;;;;;;5107092;27;44109;-74
2022/03/07 03:45:08;;;;;;;1.70;1.70;;;16.80;59.40;;;;;;5072815;27;43924;-74
2022/03/07 03:47:36;;;;;;;1.80;1.80;;;16.80;59.40;;;;;;5071808;27;44069;-74
2022/03/07 03:50:06;;;;;;;1.97;1.97;;;16.80;59.60;;;;;;5088327;27;44810;-74
2022/03/07 03:52:34;;;;;;;1.70;1.70;;;16.80;59.60;;;;;;5071301;27;44025;-74
2022/03/07 03:55:06;;;;;;;1.60;1.60;;;16.70;59.50;;;;;;5088851;27;44021;-74
2022/03/07 03:57:34;;;;;;;1.77;1.77;;;16.70;59.50;;;;;;5070874;27;45766;-74
2022/03/07 04:00:06;;;;;;;1.77;1.77;;;16.70;59.80;;;;;;5055718;27;44501;-74
2022/03/07 04:02:38;;;;;;;1.63;1.63;;;16.80;59.90;;;;;;5104157;27;43935;-74
2022/03/07 04:05:08;;;;;;;1.70;1.70;;;16.90;59.50;;;;;;5072088;27;44242;-74
2022/03/07 04:07:40;;;;;;;1.87;1.87;;;17.10;59.10;;;;;;5072150;27;46571;-74
2022/03/07 04:10:13;;;;;;;1.70;1.70;;;17.30;58.70;;;;;;5087935;27;44150;-74
2022/03/07 04:12:41;;;;;;;1.67;1.67;;;17.40;58.40;;;;;;5107545;27;43845;-74
2022/03/07 04:15:12;;;;;;;1.67;1.67;;;17.40;58.30;;;;;;5087413;27;43654;-74
2022/03/07 04:17:41;;;;;;;1.50;1.50;;;17.30;58.20;;;;;;5087846;27;43816;-74
2022/03/07 04:20:13;;;;;;;1.70;1.70;;;17.20;58.50;;;;;;5071149;27;44361;-74
2022/03/07 04:22:41;;;;;;;1.60;1.60;;;17.10;58.60;;;;;;5088159;27;44067;-74
2022/03/07 04:25:12;;;;;;;1.43;1.43;;;17.00;58.80;;;;;;5071576;27;44169;-74
2022/03/07 04:27:41;;;;;;;1.27;1.27;;;16.90;58.90;;;;;;5088399;27;46281;-74
2022/03/07 04:30:11;;;;;;;1.70;1.70;;;16.90;59.10;;;;;;5088125;27;43905;-74
2022/03/07 04:32:40;;;;;;;1.60;1.60;;;16.90;59.30;;;;;;5071199;27;43976;-74
2022/03/07 04:35:10;;;;;;;1.57;1.57;;;16.80;59.30;;;;;;5071516;27;43914;-79
2022/03/07 04:37:40;;;;;;;1.57;1.57;;;16.80;59.40;;;;;;5087566;27;44985;-74
2022/03/07 04:40:16;;;;;;;1.80;1.80;;;16.80;59.80;;;;;;5088054;27;43961;-75
2022/03/07 04:42:45;;;;;;;1.63;1.63;;;16.80;59.60;;;;;;5087680;27;43997;-74
2022/03/07 04:45:14;;;;;;;1.87;1.87;;;17.00;59.20;;;;;;5054431;27;44069;-74
2022/03/07 04:47:43;;;;;;;1.70;1.70;;;17.00;58.80;;;;;;5088065;27;46550;-74
2022/03/07 04:50:12;;;;;;;1.90;1.90;;;17.00;58.70;;;;;;5071322;27;43918;-74
2022/03/07 04:52:41;;;;;;;1.83;1.80;;;17.00;58.90;;;;;;5038351;27;43953;-74
2022/03/07 04:55:11;;;;;;;2.10;2.03;;;16.90;59.00;;;;;;5071208;27;43828;-73
2022/03/07 04:57:40;;;;;;;2.87;2.10;;;16.90;59.20;;;;;;5087917;27;44342;-74
2022/03/07 05:00:10;;;;;;;2.90;2.60;;;16.80;59.30;;;;;;5070725;27;43988;-73
2022/03/07 05:02:40;;;;;;;3.10;2.73;;;16.80;59.40;;;;;;5054524;27;43510;-74
2022/03/07 05:05:10;;;;;;;4.40;2.80;;;16.70;59.40;;;;;;5088970;27;43474;-73
2022/03/07 05:07:38;;;;;;;3.00;2.80;;;16.70;59.50;;;;;;5088053;27;43682;-73
2022/03/07 05:10:09;;;;;;;3.37;3.07;;;16.70;59.50;;;;;;5071408;27;43909;-74
2022/03/07 05:12:39;;;;;;;3.43;3.00;;;16.70;59.60;;;;;;5072271;27;44025;-72
2022/03/07 05:15:10;;;;;;;5.27;3.00;;;16.70;59.70;;;;;;5072662;27;43963;-72
2022/03/07 05:17:43;;;;;;;4.20;3.40;;;16.60;59.60;;;;;;5107006;27;43999;-75
2022/03/07 05:20:14;;;;;;;4.77;3.03;;;16.70;59.90;;;;;;5054988;27;43958;-73
2022/03/07 05:22:42;;;;;;;4.90;3.13;;;16.80;59.70;;;;;;5071613;27;43419;-73
2022/03/07 05:25:11;;;;;;;5.67;3.50;;;17.00;59.40;;;;;;5088282;27;44167;-74
2022/03/07 05:27:41;;;;;;;6.30;3.47;;;17.10;58.90;;;;;;5073995;27;44116;-74
2022/03/07 05:30:13;;;;;;;4.13;3.57;;;17.30;58.60;;;;;;5058545;27;43911;-72
2022/03/07 05:32:42;;;;;;;3.73;3.07;;;17.30;58.30;;;;;;5074821;27;44078;-73
2022/03/07 05:35:11;;;;;;;3.17;2.97;;;17.30;58.20;;;;;;5109946;27;44029;-75
2022/03/07 05:37:40;;;;;;;3.70;3.33;;;17.20;58.30;;;;;;5057526;27;44885;-75
2022/03/07 05:40:10;;;;;;;4.97;3.60;;;17.10;58.50;;;;;;5090734;27;44038;-73
2022/03/07 05:42:40;;;;;;;5.03;3.60;;;17.00;58.70;;;;;;5074715;27;43974;-74
2022/03/07 05:45:11;;;;;;;4.73;3.67;;;16.90;58.80;;;;;;5091061;27;44362;-73
2022/03/07 05:47:39;;;;;;;4.70;3.57;;;16.90;59.00;;;;;;5090950;27;45635;-73
2022/03/07 05:50:08;;;;;;;3.70;3.03;;;16.80;59.20;;;;;;5090795;27;44848;-73
2022/03/07 05:52:36;;;;;;;3.70;3.27;;;16.80;59.30;;;;;;5073440;27;43934;-73
2022/03/07 05:55:05;;;;;;;2.90;2.70;;;16.70;59.40;;;;;;5057682;27;44068;-74
2022/03/07 05:57:34;;;;;;;3.97;3.27;;;16.70;59.50;;;;;;5090132;27;44675;-73
2022/03/07 06:00:04;;;;;;;3.40;2.80;;;16.70;59.60;;;;;;5057924;28;43833;-74
2022/03/07 06:02:33;;;;;;;6.33;3.90;;;16.90;59.40;;;;;;5069438;28;43946;-74
2022/03/07 06:05:02;;;;;;;5.10;3.50;;;16.90;59.00;;;;;;5054226;28;43973;-74
2022/03/07 06:07:30;;;;;;;3.30;3.00;;;17.00;58.70;;;;;;5086292;28;44059;-74
2022/03/07 06:09:59;;;;;;;3.40;3.00;;;16.90;58.80;;;;;;5052968;28;44113;-74
2022/03/07 06:12:27;;;;;;;3.50;3.23;;;16.90;59.00;;;;;;5069822;28;43973;-74
2022/03/07 06:14:56;;;;;;;3.90;3.20;;;16.80;59.00;;;;;;5070545;28;43672;-73
2022/03/07 06:17:25;;;;;;;3.67;3.33;;;16.80;59.20;;;;;;5069173;28;44221;-73
2022/03/07 06:19:54;;;;;;;3.43;3.00;;;16.70;59.30;;;;;;5037024;28;43887;-73
2022/03/07 06:22:23;;;;;;;3.73;3.17;;;16.70;59.40;;;;;;5070032;28;43424;-74
2022/03/07 06:24:51;;;;;;;3.60;3.30;;;16.70;59.50;;;;;;5053468;28;43970;-74
2022/03/07 06:27:20;;;;;;;3.53;3.23;;;16.60;59.50;;;;;;5069243;28;45415;-74
2022/03/07 06:29:48;;;;;;;3.67;3.20;;;16.60;59.60;;;;;;5069734;28;44027;-74
2022/03/07 06:32:17;;;;;;;3.30;3.00;;;16.60;59.70;;;;;;5036019;28;43381;-74
2022/03/07 06:34:46;;;;;;;3.83;3.37;;;16.50;59.70;;;;;;5069983;28;43922;-74
2022/03/07 06:37:15;;;;;;;3.97;3.60;;;16.50;59.80;;;;;;5051577;28;43931;-74
2022/03/07 06:39:44;;;;;;;3.50;3.10;;;16.60;60.00;;;;;;5069212;28;44860;-74
2022/03/07 06:42:14;;;;;;;3.73;3.40;;;16.70;59.70;;;;;;5035827;28;43865;-74
2022/03/07 06:44:43;;;;;;;4.40;3.20;;;16.90;59.40;;;;;;5069932;28;43929;-73
2022/03/07 06:47:12;;;;;;;3.57;3.27;;;17.10;59.00;;;;;;5068693;28;44021;-74
2022/03/07 06:49:40;;;;;;;3.00;2.70;;;17.20;58.70;;;;;;5070080;28;43843;-74
2022/03/07 06:52:10;;;;;;;3.40;2.97;;;17.10;58.30;;;;;;5069202;28;44043;-73
2022/03/07 06:54:39;;;;;;;3.30;3.00;;;17.10;58.40;;;;;;5069830;28;43485;-75
2022/03/07 06:57:08;;;;;;;2.70;2.50;;;17.00;58.60;;;;;;5052602;28;44078;-74
2022/03/07 06:59:36;;;;;;;2.90;2.70;;;16.90;58.80;;;;;;5052968;28;44017;-74
2022/03/07 07:02:05;;;;;;;3.67;2.90;;;16.80;59.00;;;;;;5069205;28;43378;-74
2022/03/07 07:04:35;;;;;;;3.10;2.90;;;16.80;59.10;;;;;;5035904;28;44051;-74
2022/03/07 07:07:05;;;;;;;3.03;2.83;;;16.70;59.20;;;;;;5069100;28;44133;-74
2022/03/07 07:09:38;;;;;;;3.00;2.80;;;16.70;59.40;;;;;;5052374;28;44033;-73
2022/03/07 07:12:08;;;;;;;3.00;2.80;;;16.70;59.40;;;;;;5076243;27;43795;-76
2022/03/07 07:14:37;;;;;;;3.60;3.00;;;16.60;59.40;;;;;;5236801;23;43735;-73
2022/03/07 07:17:05;;;;;;;2.80;2.70;;;16.60;59.50;;;;;;4995156;28;44005;-73
2022/03/07 07:19:34;;;;;;;2.83;2.63;;;16.70;59.70;;;;;;5022455;23;44403;-70
2022/03/07 07:22:03;;;;;;;3.03;2.83;;;16.80;59.50;;;;;;5045026;28;43947;-70
2022/03/07 07:24:31;;;;;;;3.00;2.70;;;16.90;59.10;;;;;;5046878;28;43834;-70
2022/03/07 07:27:01;;;;;;;2.80;2.60;;;16.90;58.70;;;;;;5030070;28;44096;-70
2022/03/07 07:29:29;;;;;;;2.83;2.67;;;16.90;58.70;;;;;;5046264;28;43967;-71
2022/03/07 07:31:58;;;;;;;2.73;2.53;;;16.90;58.80;;;;;;5046586;28;43999;-71
2022/03/07 07:34:26;;;;;;;2.97;2.70;;;16.80;58.90;;;;;;5046886;28;43981;-70
2022/03/07 07:36:55;;;;;;;3.10;2.90;;;16.80;59.00;;;;;;5047856;28;44755;-71
2022/03/07 07:39:23;;;;;;;2.70;2.50;;;16.70;59.10;;;;;;5012425;28;43925;-71
2022/03/07 07:41:51;;;;;;;3.00;2.80;;;16.70;59.20;;;;;;5046228;28;43881;-71
2022/03/07 07:44:21;;;;;;;2.50;2.40;;;16.70;59.90;;;;;;5047538;28;43971;-71
2022/03/07 07:46:49;;;;;;;3.23;3.03;;;16.60;59.40;;;;;;5029675;28;43947;-71
2022/03/07 07:49:17;;;;;;;2.90;2.80;;;16.60;59.40;;;;;;5011935;28;43932;-71
2022/03/07 07:51:46;;;;;;;2.90;2.70;;;16.60;59.40;;;;;;5029535;28;43982;-69
2022/03/07 07:54:14;;;;;;;3.23;2.90;;;16.60;59.50;;;;;;5046323;28;44148;-71
2022/03/07 07:56:43;;;;;;;2.80;2.60;;;16.50;59.60;;;;;;5046086;28;45122;-71
2022/03/07 07:59:12;;;;;;;3.17;2.97;;;16.60;59.80;;;;;;5063149;28;43932;-72
2022/03/07 08:01:42;;;;;;;3.20;3.00;;;16.80;59.60;;;;;;5013283;28;43332;-71
2022/03/07 08:04:12;;;;;;;3.30;3.00;;;16.90;59.10;;;;;;5063034;28;44014;-70
2022/03/07 08:06:41;;;;;;;3.23;3.03;;;17.10;58.70;;;;;;5046911;28;44074;-71
2022/03/07 08:09:09;;;;;;;2.90;2.70;;;17.20;58.30;;;;;;5046570;28;43951;-71
2022/03/07 08:11:38;;;;;;;2.60;2.50;;;17.20;58.20;;;;;;5029565;28;43886;-70
2022/03/07 08:14:07;;;;;;;2.50;2.40;;;17.20;58.10;;;;;;5041772;28;44336;-70
2022/03/07 08:16:36;;;;;;;3.30;3.10;;;17.10;58.30;;;;;;5027284;28;43652;-71
2022/03/07 08:19:05;;;;;;;2.60;2.50;;;17.00;58.50;;;;;;5025535;28;43506;-71
2022/03/07 08:21:33;;;;;;;2.67;2.57;;;16.90;58.80;;;;;;4993185;28;43429;-71
2022/03/07 08:24:02;;;;;;;2.70;2.60;;;16.80;58.90;;;;;;4993297;28;43884;-70
2022/03/07 08:26:32;;;;;;;2.60;2.40;;;16.80;59.10;;;;;;5009678;28;43950;-71
2022/03/07 08:29:00;;;;;;;2.50;2.40;;;16.70;59.10;;;;;;5010001;28;44167;-70
2022/03/07 08:31:29;;;;;;;2.40;2.30;;;16.70;59.20;;;;;;5025417;28;44253;-70
2022/03/07 08:33:57;;;;;;;2.50;2.40;;;16.60;59.20;;;;;;4992993;28;43637;-71
2022/03/07 08:36:26;;;;;;;2.97;2.77;;;16.60;59.40;;;;;;5008996;28;44042;-71
2022/03/07 08:38:55;;;;;;;2.90;2.80;;;16.70;59.60;;;;;;4992958;28;43840;-71
2022/03/07 08:41:24;;;;;;;2.70;2.60;;;16.80;59.40;;;;;;5025669;28;43941;-70
2022/03/07 08:43:54;;;;;;;3.07;2.87;;;16.90;59.00;;;;;;5042667;28;43420;-71
2022/03/07 08:46:24;;;;;;;2.97;2.77;;;16.90;58.70;;;;;;4993339;28;44105;-71
2022/03/07 08:48:53;;;;;;;2.87;2.67;;;16.90;58.70;;;;;;4993413;28;44156;-69
2022/03/07 08:51:21;;;;;;;2.60;2.50;;;16.80;58.80;;;;;;5025511;28;43929;-70
2022/03/07 08:53:51;;;;;;;2.30;2.20;;;16.80;58.90;;;;;;5009891;28;44007;-71
2022/03/07 08:56:19;;;;;;;2.77;2.57;;;16.70;59.00;;;;;;5008692;28;43585;-71
2022/03/07 08:58:54;;;;;;;2.67;2.57;;;16.70;59.20;;;;;;5025074;28;43897;-70
2022/03/07 09:01:24;;;;;;;2.80;2.60;;;16.60;59.20;;;;;;5010578;28;44095;-70
2022/03/07 09:03:53;;;;;;;2.70;2.60;;;16.60;59.20;;;;;;4996612;28;44348;-71
2022/03/07 09:06:21;;;;;;;3.00;2.80;;;16.60;59.30;;;;;;5029172;28;44023;-71
2022/03/07 09:08:52;;;;;;;2.60;2.50;;;16.60;59.30;;;;;;5028902;28;43456;-71
2022/03/07 09:11:24;;;;;;;2.63;2.53;;;16.60;59.40;;;;;;5045055;28;44019;-71
2022/03/07 09:13:53;;;;;;;2.73;2.63;;;16.60;59.40;;;;;;5029184;28;44346;-70
2022/03/07 09:16:21;;;;;;;2.77;2.67;;;16.60;59.60;;;;;;4994876;28;44004;-71
2022/03/07 09:18:50;;;;;;;2.90;2.80;;;16.60;59.70;;;;;;5014222;28;43359;-70
2022/03/07 09:21:18;;;;;;;2.50;2.40;;;16.80;59.50;;;;;;5031431;28;43925;-71
2022/03/07 09:23:47;;;;;;;2.50;2.40;;;16.90;59.10;;;;;;5015072;28;43979;-71
2022/03/07 09:26:17;;;;;;;2.33;2.23;;;17.10;58.90;;;;;;5030992;28;44062;-70
2022/03/07 09:28:45;;;;;;;2.53;2.43;;;17.10;58.50;;;;;;5030962;28;44083;-71
2022/03/07 09:31:13;;;;;;;2.17;2.17;;;17.10;58.30;;;;;;5030533;28;43972;-70
2022/03/07 09:33:42;;;;;;;2.40;2.30;;;17.00;58.30;;;;;;5031717;28;44119;-70
2022/03/07 09:36:10;;;;;;;2.50;2.40;;;17.00;58.60;;;;;;5015061;28;44904;-70
2022/03/07 09:38:38;;;;;;;2.40;2.30;;;16.90;58.70;;;;;;5030873;28;44067;-71
2022/03/07 09:41:07;;;;;;;2.70;2.60;;;16.80;58.80;;;;;;4998307;28;43799;-71
2022/03/07 09:43:36;;;;;;;2.57;2.47;;;16.80;59.00;;;;;;5031109;28;43452;-71
2022/03/07 09:46:05;;;;;;;2.53;2.43;;;16.70;59.00;;;;;;5031109;28;45209;-71
2022/03/07 09:48:33;;;;;;;2.80;2.70;;;16.70;59.20;;;;;;5030816;28;43356;-71
2022/03/07 09:51:01;;;;;;;2.50;2.40;;;16.70;59.20;;;;;;4998726;28;43996;-71
2022/03/07 09:53:31;;;;;;;2.80;2.70;;;16.70;59.20;;;;;;4998822;28;43949;-70
2022/03/07 09:55:59;;;;;;;2.27;2.17;;;16.70;59.50;;;;;;5031277;28;43994;-71
2022/03/07 09:58:27;;;;;;;2.40;2.40;;;16.70;59.60;;;;;;5014558;28;43930;-71
2022/03/07 10:01:09;;;;;;;2.53;2.43;;;16.90;59.30;;;;;;5031229;28;43994;-71
2022/03/07 10:03:37;;;;;;;2.40;2.30;;;16.90;58.80;;;;;;5031127;28;44410;-71
2022/03/07 10:06:12;;;;;;;2.53;2.43;;;16.90;58.70;;;;;;4998513;28;45628;-70
2022/03/07 10:08:40;;;;;;;2.70;2.60;;;16.80;58.80;;;;;;5030391;28;43956;-71
2022/03/07 10:11:09;;;;;;;2.13;2.13;;;16.80;58.90;;;;;;4998063;28;43402;-70
2022/03/07 10:13:37;;;;;;;2.20;2.20;;;16.80;59.10;;;;;;5013796;28;43591;-71
2022/03/07 10:16:08;;;;;;;2.20;2.10;;;16.70;59.10;;;;;;5030312;28;45258;-69
2022/03/07 10:18:37;;;;;;;2.40;2.30;;;16.70;59.30;;;;;;5030235;28;44260;-71
2022/03/07 10:21:05;;;;;;;2.67;2.57;;;16.70;59.30;;;;;;4998368;28;43407;-70
2022/03/07 10:23:34;;;;;;;2.60;2.50;;;16.60;59.30;;;;;;5014633;28;44104;-71
2022/03/07 10:26:06;;;;;;;2.33;2.30;;;16.70;59.50;;;;;;5014308;28;44003;-70
2022/03/07 10:28:35;;;;;;;2.87;2.77;;;16.70;59.50;;;;;;5014376;28;44161;-71
2022/03/07 10:31:14;;;;;;;2.10;2.00;;;16.60;59.50;;;;;;4998380;28;44016;-71
2022/03/07 10:33:43;;;;;;;2.50;2.40;;;16.60;59.60;;;;;;4998083;28;44240;-70
2022/03/07 10:36:11;;;;;;;2.33;2.23;;;16.70;59.80;;;;;;5030017;28;44051;-71
2022/03/07 10:38:39;;;;;;;2.20;2.20;;;16.80;59.60;;;;;;5014722;28;44417;-71
2022/03/07 10:41:08;;;;;;;2.40;2.30;;;17.00;59.20;;;;;;5014319;28;43979;-70
2022/03/07 10:43:46;;;;;;;2.37;2.33;;;17.10;58.80;;;;;;5047664;28;44099;-71
2022/03/07 10:46:24;;;;;;;2.37;2.27;;;17.20;58.70;;;;;;5046848;28;44090;-71
2022/03/07 10:48:52;;;;;;;2.20;2.20;;;17.10;58.40;;;;;;5048117;28;43413;-70
2022/03/07 10:51:21;;;;;;;2.40;2.40;;;17.10;58.50;;;;;;5030266;28;43968;-70
2022/03/07 10:53:49;;;;;;;2.27;2.27;;;17.00;58.60;;;;;;5015134;28;43975;-71
2022/03/07 10:56:17;;;;;;;2.20;2.10;;;16.90;58.80;;;;;;5013266;28;43983;-70
2022/03/07 10:58:47;;;;;;;2.33;2.33;;;16.90;59.00;;;;;;5030195;28;43719;-71
2022/03/07 11:01:27;;;;;;;2.30;2.30;;;16.80;59.10;;;;;;5013182;28;43877;-71
2022/03/07 11:03:55;;;;;;;2.07;2.07;;;16.80;59.20;;;;;;5030984;28;43913;-72
2022/03/07 11:06:23;;;;;;;2.50;2.40;;;16.80;59.30;;;;;;4997619;28;44067;-70
2022/03/07 11:08:52;;;;;;;2.33;2.30;;;16.80;59.40;;;;;;4980925;28;44760;-71
2022/03/07 11:11:21;;;;;;;2.20;2.20;;;16.70;59.30;;;;;;5029501;28;44068;-70
2022/03/07 11:13:52;;;;;;;2.20;2.20;;;16.70;59.60;;;;;;5029695;28;43433;-71
2022/03/07 11:16:22;;;;;;;2.13;2.13;;;16.80;59.70;;;;;;5013480;28;43990;-71
2022/03/07 11:18:53;;;;;;;2.00;2.00;;;16.90;59.40;;;;;;5029289;28;44008;-70
2022/03/07 11:21:28;;;;;;;2.00;2.00;;;16.90;59.10;;;;;;5014718;28;44030;-70
2022/03/07 11:23:57;;;;;;;2.03;2.03;;;17.00;59.10;;;;;;5013784;28;43993;-70
2022/03/07 11:26:26;;;;;;;2.20;2.20;;;16.90;59.10;;;;;;4997023;28;44867;-71
2022/03/07 11:28:57;;;;;;;2.10;2.10;;;16.90;59.20;;;;;;4997365;28;43840;-70
2022/03/07 11:31:28;;;;;;;2.20;2.20;;;16.80;59.30;;;;;;4997463;28;44034;-71
2022/03/07 11:33:57;;;;;;;2.00;2.00;;;16.80;59.30;;;;;;5029793;28;44049;-70
2022/03/07 11:36:27;;;;;;;2.20;2.20;;;16.80;59.40;;;;;;4996431;28;43886;-70
2022/03/07 11:38:57;;;;;;;2.00;2.00;;;16.80;59.50;;;;;;4996929;28;44438;-70
2022/03/07 11:41:28;;;;;;;1.80;1.80;;;16.80;59.60;;;;;;4997125;28;44042;-71
2022/03/07 11:43:57;;;;;;;2.10;2.00;;;16.80;59.60;;;;;;4996891;28;44081;-71
2022/03/07 11:46:30;;;;;;;2.23;2.23;;;16.80;59.60;;;;;;5012437;28;43892;-70
2022/03/07 11:48:58;;;;;;;2.20;2.20;;;16.80;59.70;;;;;;4996607;28;44408;-71
2022/03/07 11:51:27;;;;;;;2.03;2.00;;;16.80;59.70;;;;;;5012084;28;44097;-72
2022/03/07 11:53:55;;;;;;;1.90;1.90;;;16.80;59.70;;;;;;5029610;28;43957;-70
2022/03/07 11:56:25;;;;;;;1.90;1.90;;;16.80;59.60;;;;;;5012261;28;44123;-71
2022/03/07 11:58:55;;;;;;;1.90;1.90;;;17.00;59.40;;;;;;5012583;28;44215;-71
2022/03/07 12:01:30;;;;;;;2.27;2.20;;;17.10;59.10;;;;;;4998701;28;44071;-71
2022/03/07 12:04:09;;;;;;;2.00;2.00;;;17.20;58.70;;;;;;5030182;28;44011;-71
2022/03/07 12:06:42;;;;;;;1.87;1.87;;;17.20;58.40;;;;;;5012965;28;44100;-71
2022/03/07 12:09:10;;;;;;;2.20;2.10;;;17.20;58.70;;;;;;5029080;28;44005;-70
2022/03/07 12:11:39;;;;;;;2.17;2.17;;;17.10;58.80;;;;;;5012837;28;43393;-71
2022/03/07 12:14:09;;;;;;;2.13;2.13;;;17.10;59.00;;;;;;5029516;28;43417;-70
2022/03/07 12:16:39;;;;;;;2.10;2.10;;;17.00;59.10;;;;;;5013050;28;44049;-70
2022/03/07 12:19:18;;;;;;;2.20;2.20;;;17.00;59.30;;;;;;5041455;28;44323;-71
2022/03/07 12:21:47;;;;;;;1.80;1.80;;;16.90;59.40;;;;;;5006772;28;43992;-71
2022/03/07 12:24:16;;;;;;;2.00;2.00;;;16.90;59.30;;;;;;5025845;28;43929;-71
2022/03/07 12:26:46;;;;;;;2.17;2.17;;;16.80;59.40;;;;;;5008962;28;45730;-70
2022/03/07 12:29:14;;;;;;;2.27;2.27;;;16.90;59.50;;;;;;5009184;28;43855;-70
2022/03/07 12:31:52;;;;;;;2.20;2.20;;;16.80;59.60;;;;;;5010108;28;43852;-70
2022/03/07 12:34:21;;;;;;;2.10;2.10;;;16.80;59.60;;;;;;5025302;28;43556;-71
2022/03/07 12:36:59;;;;;;;2.27;2.27;;;16.90;59.40;;;;;;5028816;28;44545;-71
2022/03/07 12:39:28;;;;;;;1.90;1.90;;;17.00;59.20;;;;;;5028688;28;43713;-71
2022/03/07 12:42:00;;;;;;;1.80;1.80;;;17.00;59.20;;;;;;5013057;28;44028;-71
2022/03/07 12:44:28;;;;;;;1.90;1.90;;;17.00;59.30;;;;;;4996082;28;44097;-71
2022/03/07 12:46:58;;;;;;;2.30;2.30;;;16.90;59.30;;;;;;5013152;28;43999;-71
2022/03/07 12:49:27;;;;;;;2.17;2.17;;;17.00;59.50;;;;;;5028075;28;44017;-71
2022/03/07 12:51:55;;;;;;;2.50;2.40;;;16.90;59.50;;;;;;4996198;28;43447;-71
2022/03/07 12:54:29;;;;;;;2.30;2.30;;;16.80;59.50;;;;;;5012059;28;44129;-71
2022/03/07 12:56:57;;;;;;;2.10;2.10;;;16.90;59.70;;;;;;5028366;28;43933;-71
2022/03/07 12:59:26;;;;;;;2.00;2.00;;;16.80;59.60;;;;;;5011679;28;43903;-70